Rio Grande da Serra, Brazil
Current Conditions -  °F | °C
As of 6:00 PM on Saturday 25 Oct 2014 (Local Time) from SBST Reporting Station
Broken Clouds Broken Clouds  
Wind Chill: 73°   Ceiling: 2400
Heat Index: 73°   Visibility: 6mi
Dew Point: 68°   Wind: 0mph
Humidity: 83%   Direction: NA
Pressure: 29.91"   Gusts: NA
Location:  23.8°S, 46.34°W
Report Text: SBST 252000Z 00000KT 9999 BKN024 BKN043 23/20 Q1013
Loading
Personal Weather Stations






























Interactive Weather Map
Tropical Storm Tracking
New forecast layout! Learn more

10-Day Weather Forecast

Advertisements
Track Severe Weather on mobile